createdAt,value
2019-03-26T00:00:54.907Z,15.20
2019-03-26T00:03:23.612Z,15.10
2019-03-26T00:05:52.286Z,15.20
2019-03-26T00:08:21.220Z,15.10
2019-03-26T00:10:49.751Z,15.20
2019-03-26T00:13:18.437Z,15.10
2019-03-26T00:15:47.180Z,15.20
2019-03-26T00:18:15.803Z,15.20
2019-03-26T00:20:44.489Z,15.20
2019-03-26T00:23:13.349Z,15.00
2019-03-26T00:25:41.963Z,14.90
2019-03-26T00:28:10.543Z,15.10
2019-03-26T00:30:39.310Z,15.10
2019-03-26T00:33:08.121Z,15.20
2019-03-26T00:35:36.904Z,15.20
2019-03-26T00:38:05.772Z,15.30
2019-03-26T00:40:34.536Z,15.10
2019-03-26T00:43:03.211Z,15.20
2019-03-26T00:45:31.878Z,15.10
2019-03-26T00:48:00.554Z,15.10
2019-03-26T00:50:29.235Z,15.10
2019-03-26T00:52:57.781Z,15.20
2019-03-26T00:55:26.383Z,15.20
2019-03-26T00:57:54.962Z,15.00
2019-03-26T01:00:37.083Z,14.90
2019-03-26T01:03:08.720Z,14.70
2019-03-26T01:05:37.528Z,14.80
2019-03-26T01:08:06.363Z,14.80
2019-03-26T01:10:35.127Z,14.80
2019-03-26T01:13:03.779Z,14.90
2019-03-26T01:15:32.727Z,15.00
2019-03-26T01:18:01.444Z,14.80
2019-03-26T01:20:29.974Z,14.80
2019-03-26T01:22:58.596Z,14.80
2019-03-26T01:25:27.224Z,14.90
2019-03-26T01:27:55.905Z,14.90
2019-03-26T01:30:24.535Z,14.90
2019-03-26T01:32:53.179Z,15.00
2019-03-26T01:35:21.765Z,14.90
2019-03-26T01:37:50.487Z,14.80
2019-03-26T01:40:19.269Z,15.00
2019-03-26T01:42:47.899Z,15.00
2019-03-26T01:45:16.774Z,15.00
2019-03-26T01:47:45.485Z,15.20
2019-03-26T01:50:14.173Z,15.20
2019-03-26T01:52:43.137Z,15.10
2019-03-26T01:55:11.761Z,14.90
2019-03-26T01:57:40.520Z,14.90
2019-03-26T02:00:10.017Z,15.10
2019-03-26T02:02:38.622Z,15.10
2019-03-26T02:05:07.500Z,15.10
2019-03-26T02:07:38.833Z,15.00
2019-03-26T02:10:06.928Z,15.10
2019-03-26T02:12:35.478Z,15.40
2019-03-26T02:15:04.451Z,15.40
2019-03-26T02:17:33.085Z,15.50
2019-03-26T02:20:01.760Z,15.50
2019-03-26T02:22:30.535Z,15.30
2019-03-26T02:24:59.337Z,15.40
2019-03-26T02:27:28.032Z,15.40
2019-03-26T02:29:56.780Z,15.40
2019-03-26T02:32:25.401Z,15.40
2019-03-26T02:34:53.992Z,15.30
2019-03-26T02:37:22.569Z,15.50
2019-03-26T02:39:51.242Z,15.50
2019-03-26T02:42:19.936Z,15.50
2019-03-26T02:44:48.668Z,15.40
2019-03-26T02:47:17.021Z,15.40
2019-03-26T02:49:45.738Z,15.30
2019-03-26T02:52:14.517Z,15.40
2019-03-26T02:54:43.085Z,15.30
2019-03-26T02:57:11.958Z,15.40
2019-03-26T02:59:40.795Z,15.50
2019-03-26T03:02:09.580Z,15.50
2019-03-26T03:04:38.051Z,15.50
2019-03-26T03:07:06.859Z,15.20
2019-03-26T03:09:35.376Z,15.30
2019-03-26T03:12:04.191Z,15.20
2019-03-26T03:14:33.011Z,15.40
2019-03-26T03:17:01.646Z,15.50
2019-03-26T03:19:30.408Z,15.60
2019-03-26T03:21:59.043Z,15.50
2019-03-26T03:24:27.807Z,15.60
2019-03-26T03:26:56.479Z,15.60
2019-03-26T03:29:25.329Z,15.60
2019-03-26T03:31:54.058Z,15.60
2019-03-26T03:34:22.738Z,15.70
2019-03-26T03:36:51.605Z,15.70
2019-03-26T03:39:20.128Z,15.60
2019-03-26T03:41:48.901Z,15.70
2019-03-26T03:44:17.593Z,15.70
2019-03-26T03:46:48.716Z,15.80
2019-03-26T03:49:21.489Z,15.70
2019-03-26T03:51:51.911Z,15.50
2019-03-26T03:54:21.756Z,15.50
2019-03-26T03:56:52.923Z,15.60
2019-03-26T03:59:22.177Z,15.50
2019-03-26T04:01:50.890Z,15.50
2019-03-26T04:04:19.585Z,15.40
2019-03-26T04:06:48.156Z,15.40
2019-03-26T04:09:16.853Z,15.00
2019-03-26T04:11:45.624Z,14.80
2019-03-26T04:14:14.403Z,15.00
2019-03-26T04:16:43.305Z,14.50
2019-03-26T04:19:12.138Z,14.80
2019-03-26T04:21:41.091Z,14.80
2019-03-26T04:24:09.857Z,15.00
2019-03-26T04:26:38.711Z,15.00
2019-03-26T04:29:07.436Z,14.70
2019-03-26T04:31:36.220Z,14.80
2019-03-26T04:34:05.069Z,14.80
2019-03-26T04:36:33.898Z,14.70
2019-03-26T04:39:03.111Z,14.60
2019-03-26T04:41:32.065Z,14.50
2019-03-26T04:44:00.696Z,14.40
2019-03-26T04:46:29.471Z,14.30
2019-03-26T04:48:58.199Z,14.10
2019-03-26T04:51:26.933Z,14.10
2019-03-26T04:53:55.655Z,14.30
2019-03-26T04:56:24.302Z,14.20
2019-03-26T04:58:53.014Z,14.00
2019-03-26T05:01:21.776Z,14.00
2019-03-26T05:03:50.563Z,13.90
2019-03-26T05:06:19.165Z,14.00
2019-03-26T05:08:48.003Z,14.10
2019-03-26T05:11:16.899Z,14.20
2019-03-26T05:13:45.712Z,14.00
2019-03-26T05:16:14.519Z,13.80
2019-03-26T05:18:43.368Z,14.00
2019-03-26T05:21:11.958Z,13.80
2019-03-26T05:23:40.804Z,13.80
2019-03-26T05:26:09.463Z,14.00
2019-03-26T05:28:38.247Z,14.00
2019-03-26T05:31:07.187Z,14.20
2019-03-26T05:33:35.769Z,14.30
2019-03-26T05:36:04.493Z,14.30
2019-03-26T05:38:33.283Z,14.40
2019-03-26T05:41:02.245Z,14.40
2019-03-26T05:43:30.860Z,14.30
2019-03-26T05:45:59.716Z,14.50
2019-03-26T05:48:28.768Z,14.70
2019-03-26T05:50:57.417Z,14.60
2019-03-26T05:53:26.121Z,14.80
2019-03-26T05:55:54.992Z,14.50
2019-03-26T05:58:24.007Z,14.60
2019-03-26T06:00:52.704Z,14.80
2019-03-26T06:03:21.527Z,14.90
2019-03-26T06:05:50.048Z,15.10
2019-03-26T06:08:37.542Z,15.20
2019-03-26T06:11:06.273Z,15.40
2019-03-26T06:13:35.045Z,15.30
2019-03-26T06:16:03.811Z,15.40
2019-03-26T06:18:32.460Z,15.50
2019-03-26T06:21:01.316Z,15.60
2019-03-26T06:23:30.121Z,15.70
2019-03-26T06:25:58.784Z,15.80
2019-03-26T06:28:27.452Z,16.00
2019-03-26T06:30:56.436Z,16.30
2019-03-26T06:33:25.141Z,16.20
2019-03-26T06:35:53.848Z,16.50
2019-03-26T06:38:22.563Z,17.30
2019-03-26T06:40:51.364Z,18.30
2019-03-26T06:43:19.919Z,18.90
2019-03-26T06:45:48.534Z,19.50
2019-03-26T06:48:17.307Z,20.10
2019-03-26T06:50:46.052Z,20.20
2019-03-26T06:53:14.832Z,20.60
2019-03-26T06:55:43.620Z,20.40
2019-03-26T06:58:12.339Z,20.60
2019-03-26T07:00:41.284Z,20.80
2019-03-26T07:03:09.973Z,20.70
2019-03-26T07:05:38.775Z,20.70
2019-03-26T07:08:07.626Z,21.00
2019-03-26T07:10:36.299Z,21.30
2019-03-26T07:13:05.017Z,21.10
2019-03-26T07:15:33.791Z,21.50
2019-03-26T07:18:02.634Z,22.40
2019-03-26T07:20:31.317Z,22.50
2019-03-26T07:23:00.158Z,21.80
2019-03-26T07:25:28.870Z,22.40
2019-03-26T07:27:58.091Z,21.70
2019-03-26T07:30:37.665Z,21.50
2019-03-26T07:33:06.637Z,21.10
2019-03-26T07:35:35.311Z,21.60
2019-03-26T07:38:04.128Z,21.70
2019-03-26T07:40:33.016Z,21.90
2019-03-26T07:43:01.765Z,22.50
2019-03-26T07:45:30.744Z,22.40
2019-03-26T07:47:59.411Z,23.00
2019-03-26T07:50:28.025Z,23.00
2019-03-26T07:52:56.853Z,22.60
2019-03-26T07:55:25.608Z,23.10
2019-03-26T07:57:54.379Z,24.00
2019-03-26T08:00:32.545Z,23.90
2019-03-26T08:03:01.464Z,24.10
2019-03-26T08:05:30.291Z,23.60
2019-03-26T08:07:59.159Z,23.70
2019-03-26T08:10:27.893Z,23.00
2019-03-26T08:12:56.647Z,22.80
2019-03-26T08:15:25.370Z,22.50
2019-03-26T08:17:54.068Z,22.80
2019-03-26T08:20:22.574Z,22.60
2019-03-26T08:22:51.431Z,22.20
2019-03-26T08:25:20.191Z,22.30
2019-03-26T08:27:48.837Z,22.10
2019-03-26T08:30:17.713Z,21.90
2019-03-26T08:32:46.342Z,22.00
2019-03-26T08:35:14.879Z,22.20
2019-03-26T08:37:43.537Z,22.20
2019-03-26T08:40:12.372Z,21.90
2019-03-26T08:42:40.971Z,21.70
2019-03-26T08:45:09.787Z,21.40
2019-03-26T08:47:38.614Z,21.40
2019-03-26T08:50:07.735Z,21.70
2019-03-26T08:52:36.560Z,21.40
2019-03-26T08:55:06.319Z,21.30
2019-03-26T08:57:34.883Z,21.60
2019-03-26T09:00:03.953Z,21.60
2019-03-26T09:02:32.675Z,21.80
2019-03-26T09:05:01.456Z,22.10
2019-03-26T09:07:30.217Z,21.70
2019-03-26T09:09:58.868Z,21.90
2019-03-26T09:12:27.606Z,21.50
2019-03-26T09:14:56.497Z,21.50
2019-03-26T09:17:25.187Z,21.70
2019-03-26T09:19:53.876Z,21.90
2019-03-26T09:22:22.732Z,22.20
2019-03-26T09:24:51.471Z,22.50
2019-03-26T09:27:20.172Z,22.50
2019-03-26T09:29:48.996Z,21.90
2019-03-26T09:32:17.864Z,21.50
2019-03-26T09:34:46.808Z,21.40
2019-03-26T09:37:15.555Z,21.40
2019-03-26T09:39:44.387Z,21.60
2019-03-26T09:42:13.055Z,21.10
2019-03-26T09:44:41.815Z,21.10
2019-03-26T09:47:16.124Z,21.50
2019-03-26T09:49:41.078Z,20.90
2019-03-26T09:52:09.725Z,20.50
2019-03-26T09:54:38.436Z,20.50
2019-03-26T09:57:07.325Z,20.90
2019-03-26T09:59:35.980Z,21.00
2019-03-26T10:02:04.619Z,20.50
2019-03-26T10:04:33.421Z,20.50
2019-03-26T10:07:02.218Z,20.00
2019-03-26T10:09:30.983Z,19.90
2019-03-26T10:11:59.736Z,19.40
2019-03-26T10:14:28.406Z,19.50
2019-03-26T10:16:57.239Z,19.60
2019-03-26T10:19:25.911Z,19.90
2019-03-26T10:21:54.669Z,20.20
2019-03-26T10:24:23.283Z,21.00
2019-03-26T10:26:52.046Z,20.90
2019-03-26T10:29:30.176Z,21.00
2019-03-26T10:31:51.212Z,20.80
2019-03-26T10:34:19.654Z,20.80
2019-03-26T10:36:48.729Z,20.90
2019-03-26T10:39:17.362Z,21.30
2019-03-26T10:41:46.029Z,22.00
2019-03-26T10:44:14.879Z,21.40
2019-03-26T10:46:44.679Z,21.00
2019-03-26T10:49:13.116Z,21.20
2019-03-26T10:51:42.066Z,21.70
2019-03-26T10:54:10.867Z,22.40
2019-03-26T10:56:39.586Z,22.30
2019-03-26T10:59:08.491Z,22.20
2019-03-26T11:01:37.244Z,22.60
2019-03-26T11:04:07.721Z,22.50
2019-03-26T11:06:36.665Z,22.90
2019-03-26T11:09:20.037Z,22.50
2019-03-26T11:11:37.241Z,22.90
2019-03-26T11:14:05.856Z,23.50
2019-03-26T11:16:34.387Z,23.60
2019-03-26T11:19:03.067Z,24.20
2019-03-26T11:21:31.845Z,24.50
2019-03-26T11:24:00.528Z,24.30
2019-03-26T11:26:29.323Z,24.50
2019-03-26T11:28:58.167Z,24.70
2019-03-26T11:31:29.878Z,25.00
2019-03-26T11:33:57.447Z,25.30
2019-03-26T11:36:26.070Z,26.00
2019-03-26T11:38:54.893Z,25.80
2019-03-26T11:41:23.479Z,25.80
2019-03-26T11:43:52.439Z,25.40
2019-03-26T11:46:21.048Z,25.20
2019-03-26T11:48:49.733Z,24.90
2019-03-26T11:51:18.551Z,24.70
2019-03-26T11:53:47.230Z,24.90
2019-03-26T11:56:15.949Z,23.60
2019-03-26T11:58:44.639Z,23.10
2019-03-26T12:01:13.474Z,23.90
2019-03-26T12:03:42.207Z,24.50
2019-03-26T12:06:10.920Z,23.90
2019-03-26T12:08:39.750Z,23.50
2019-03-26T12:11:08.435Z,23.30
2019-03-26T12:13:37.207Z,23.40
2019-03-26T12:16:06.104Z,23.80
2019-03-26T12:18:34.872Z,24.50
2019-03-26T12:21:03.737Z,25.20
2019-03-26T12:23:32.104Z,25.10
2019-03-26T12:26:00.753Z,23.80
2019-03-26T12:28:29.391Z,23.10
2019-03-26T12:30:58.200Z,24.00
2019-03-26T12:33:26.793Z,23.80
2019-03-26T12:35:55.548Z,23.50
2019-03-26T12:38:24.155Z,23.10
2019-03-26T12:40:52.973Z,22.80
2019-03-26T12:43:21.851Z,22.70
2019-03-26T12:45:50.839Z,22.90
2019-03-26T12:48:19.630Z,22.70
2019-03-26T12:50:48.520Z,22.40
2019-03-26T12:53:17.186Z,22.00
2019-03-26T12:55:45.929Z,22.00
2019-03-26T12:58:14.843Z,21.50
2019-03-26T13:00:46.510Z,21.10
2019-03-26T13:03:15.322Z,20.50
2019-03-26T13:05:44.006Z,20.40
2019-03-26T13:08:12.988Z,20.40
2019-03-26T13:10:52.916Z,20.60
2019-03-26T13:13:12.269Z,20.80
2019-03-26T13:15:40.995Z,20.60
2019-03-26T13:18:11.190Z,20.30
2019-03-26T13:20:40.066Z,19.90
2019-03-26T13:23:08.808Z,19.90
2019-03-26T13:25:37.491Z,19.80
2019-03-26T13:28:06.275Z,19.40
2019-03-26T13:30:35.147Z,19.40
2019-03-26T13:33:03.940Z,19.50
2019-03-26T13:35:32.780Z,19.00
2019-03-26T13:38:01.523Z,18.70
2019-03-26T13:40:30.192Z,18.50
2019-03-26T13:42:58.952Z,18.60
2019-03-26T13:45:27.785Z,18.70
2019-03-26T13:47:56.448Z,18.50
2019-03-26T13:50:25.267Z,18.70
2019-03-26T13:52:54.133Z,18.30
2019-03-26T13:55:22.715Z,18.40
2019-03-26T13:57:51.455Z,18.30
2019-03-26T14:00:35.239Z,18.00
2019-03-26T14:03:04.314Z,18.20
2019-03-26T14:05:33.024Z,18.20
2019-03-26T14:08:01.804Z,17.80
2019-03-26T14:10:40.665Z,17.60
2019-03-26T14:13:01.508Z,17.60
2019-03-26T14:15:31.347Z,18.00
2019-03-26T14:18:00.070Z,18.10
2019-03-26T14:20:28.743Z,18.00
2019-03-26T14:22:57.399Z,18.10
2019-03-26T14:25:26.173Z,18.00
2019-03-26T14:27:54.884Z,17.80
2019-03-26T14:30:41.131Z,17.30
2019-03-26T14:33:10.271Z,17.30
2019-03-26T14:35:38.966Z,17.20
2019-03-26T14:38:07.696Z,16.70
2019-03-26T14:40:36.437Z,16.80
2019-03-26T14:43:05.241Z,17.10
2019-03-26T14:45:34.069Z,16.80
2019-03-26T14:48:02.682Z,16.80
2019-03-26T14:50:31.435Z,16.50
2019-03-26T14:53:00.125Z,16.60
2019-03-26T14:55:28.851Z,16.70
2019-03-26T14:57:57.526Z,16.70
2019-03-26T15:00:45.031Z,16.70
2019-03-26T15:03:13.846Z,16.20
2019-03-26T15:05:42.437Z,16.20
2019-03-26T15:08:11.220Z,16.10
2019-03-26T15:10:39.912Z,15.90
2019-03-26T15:13:08.532Z,15.90
2019-03-26T15:15:37.545Z,15.90
2019-03-26T15:18:06.301Z,15.80
2019-03-26T15:20:34.972Z,15.90
2019-03-26T15:23:03.908Z,15.80
2019-03-26T15:25:32.628Z,15.60
2019-03-26T15:28:01.303Z,15.70
2019-03-26T15:30:30.317Z,15.70
2019-03-26T15:32:58.997Z,15.60
2019-03-26T15:35:27.572Z,15.90
2019-03-26T15:37:56.363Z,15.80
2019-03-26T15:40:24.856Z,15.60
2019-03-26T15:42:53.730Z,15.50
2019-03-26T15:45:22.492Z,15.30
2019-03-26T15:47:51.008Z,15.40
2019-03-26T15:50:39.406Z,15.60
2019-03-26T15:53:08.328Z,15.50
2019-03-26T15:55:36.927Z,15.70
2019-03-26T15:58:05.660Z,15.60
2019-03-26T16:00:34.209Z,15.40
2019-03-26T16:03:03.004Z,15.40
2019-03-26T16:05:31.718Z,15.30
2019-03-26T16:08:00.818Z,15.40
2019-03-26T16:10:29.464Z,15.50
2019-03-26T16:12:58.101Z,15.30
2019-03-26T16:15:27.742Z,15.10
2019-03-26T16:17:56.679Z,15.30
2019-03-26T16:20:25.319Z,15.40
2019-03-26T16:23:12.812Z,15.40
2019-03-26T16:25:41.422Z,15.50
2019-03-26T16:28:10.128Z,15.40
2019-03-26T16:30:39.954Z,15.50
2019-03-26T16:33:08.707Z,15.40
2019-03-26T16:35:40.059Z,15.30
2019-03-26T16:38:07.979Z,15.40
2019-03-26T16:40:36.506Z,15.50
2019-03-26T16:43:05.224Z,15.60
2019-03-26T16:45:34.131Z,15.50
2019-03-26T16:48:02.683Z,15.30
2019-03-26T16:50:31.358Z,15.10
2019-03-26T16:53:00.100Z,14.90
2019-03-26T16:55:28.738Z,14.70
2019-03-26T16:57:57.395Z,14.90
2019-03-26T17:00:33.100Z,14.80
2019-03-26T17:03:01.793Z,15.00
2019-03-26T17:05:30.333Z,15.20
2019-03-26T17:07:59.019Z,14.80
2019-03-26T17:10:27.667Z,15.00
2019-03-26T17:12:56.497Z,15.20
2019-03-26T17:15:25.093Z,15.00
2019-03-26T17:17:53.848Z,15.00
2019-03-26T17:20:24.014Z,15.00
2019-03-26T17:22:52.955Z,14.90
2019-03-26T17:25:21.339Z,14.90
2019-03-26T17:27:49.622Z,14.90
2019-03-26T17:30:17.953Z,14.60
2019-03-26T17:32:46.675Z,14.70
2019-03-26T17:35:15.292Z,14.50
2019-03-26T17:37:43.881Z,14.50
2019-03-26T17:40:12.721Z,14.60
2019-03-26T17:42:41.320Z,14.70
2019-03-26T17:45:10.114Z,14.80
2019-03-26T17:47:38.774Z,14.80
2019-03-26T17:50:07.963Z,14.90
2019-03-26T17:52:36.738Z,15.00
2019-03-26T17:55:05.882Z,14.90
2019-03-26T17:57:34.644Z,14.80
2019-03-26T18:00:03.682Z,14.80
2019-03-26T18:02:32.324Z,14.80
2019-03-26T18:05:01.018Z,14.90
2019-03-26T18:07:29.728Z,15.00
2019-03-26T18:09:58.422Z,14.80
2019-03-26T18:12:31.135Z,14.80
2019-03-26T18:14:57.676Z,14.80
2019-03-26T18:17:26.281Z,14.90
2019-03-26T18:19:55.073Z,15.10
2019-03-26T18:22:23.758Z,15.10
2019-03-26T18:24:52.554Z,15.00
2019-03-26T18:27:21.123Z,14.90
2019-03-26T18:29:49.679Z,14.70
2019-03-26T18:32:18.299Z,14.60
2019-03-26T18:34:46.753Z,14.60
2019-03-26T18:37:15.468Z,14.50
2019-03-26T18:39:43.924Z,14.40
2019-03-26T18:42:12.630Z,14.40
2019-03-26T18:44:41.541Z,14.20
2019-03-26T18:47:10.136Z,14.10
2019-03-26T18:49:38.820Z,14.40
2019-03-26T18:52:07.273Z,14.50
2019-03-26T18:54:36.314Z,14.40
2019-03-26T18:57:05.361Z,14.30
2019-03-26T18:59:34.070Z,14.30
2019-03-26T19:02:02.833Z,14.40
2019-03-26T19:04:31.498Z,14.20
2019-03-26T19:07:00.220Z,14.40
2019-03-26T19:09:28.652Z,14.60
2019-03-26T19:11:57.263Z,14.70
2019-03-26T19:14:26.081Z,14.70
2019-03-26T19:16:54.728Z,14.50
2019-03-26T19:19:23.245Z,14.60
2019-03-26T19:21:52.061Z,14.70
2019-03-26T19:24:20.814Z,14.70
2019-03-26T19:26:49.263Z,14.90
2019-03-26T19:29:18.130Z,14.70
2019-03-26T19:31:46.848Z,14.70
2019-03-26T19:34:15.624Z,14.70
2019-03-26T19:36:44.371Z,14.60
2019-03-26T19:39:12.922Z,14.40
2019-03-26T19:41:41.567Z,14.30
2019-03-26T19:44:10.055Z,14.30
2019-03-26T19:46:38.652Z,14.10
2019-03-26T19:49:07.152Z,14.30
2019-03-26T19:51:36.025Z,14.00
2019-03-26T19:54:04.813Z,14.00
2019-03-26T19:56:33.168Z,14.00
2019-03-26T19:59:01.838Z,14.10
2019-03-26T20:01:30.447Z,14.20
2019-03-26T20:03:59.143Z,14.40
2019-03-26T20:06:27.873Z,14.60
2019-03-26T20:08:56.299Z,14.60
2019-03-26T20:11:24.788Z,14.60
2019-03-26T20:13:53.427Z,14.50
2019-03-26T20:16:22.073Z,14.60
2019-03-26T20:18:50.835Z,14.60
2019-03-26T20:21:19.571Z,14.70
2019-03-26T20:23:48.307Z,14.70
2019-03-26T20:26:17.103Z,14.80
2019-03-26T20:28:45.952Z,14.80
2019-03-26T20:31:14.567Z,14.70
2019-03-26T20:33:43.363Z,14.70
2019-03-26T20:36:12.147Z,14.60
2019-03-26T20:38:40.728Z,14.60
2019-03-26T20:41:09.402Z,14.50
2019-03-26T20:43:38.111Z,14.70
2019-03-26T20:46:06.889Z,14.70
2019-03-26T20:48:35.566Z,14.80
2019-03-26T20:51:04.157Z,14.70
2019-03-26T20:53:32.744Z,14.70
2019-03-26T20:56:01.525Z,14.60
2019-03-26T20:58:30.579Z,14.60
2019-03-26T21:00:59.447Z,14.60
2019-03-26T21:03:28.115Z,14.60
2019-03-26T21:05:56.845Z,14.20
2019-03-26T21:08:25.451Z,14.40
2019-03-26T21:10:54.157Z,14.30
2019-03-26T21:13:23.010Z,14.40
2019-03-26T21:15:57.178Z,14.50
2019-03-26T21:18:22.165Z,14.50
2019-03-26T21:20:50.875Z,14.40
2019-03-26T21:23:19.583Z,14.50
2019-03-26T21:25:48.208Z,14.50
2019-03-26T21:28:17.114Z,14.30
2019-03-26T21:30:45.789Z,14.40
2019-03-26T21:33:14.458Z,14.10
2019-03-26T21:35:43.439Z,13.80
2019-03-26T21:38:12.056Z,14.00
2019-03-26T21:40:40.830Z,14.00
2019-03-26T21:43:09.480Z,13.90
2019-03-26T21:45:39.345Z,13.80
2019-03-26T21:48:09.016Z,13.80
2019-03-26T21:50:37.765Z,14.00
2019-03-26T21:53:06.327Z,13.90
2019-03-26T21:55:35.217Z,14.10
2019-03-26T21:58:04.053Z,14.00
2019-03-26T22:00:32.773Z,14.10
2019-03-26T22:03:01.259Z,14.00
2019-03-26T22:05:30.115Z,14.10
2019-03-26T22:07:58.725Z,14.10
2019-03-26T22:10:27.407Z,14.00
2019-03-26T22:12:56.279Z,14.10
2019-03-26T22:15:24.892Z,13.90
2019-03-26T22:17:53.578Z,13.80
2019-03-26T22:20:22.315Z,13.70
2019-03-26T22:22:51.067Z,13.70
2019-03-26T22:25:19.824Z,13.70
2019-03-26T22:27:49.524Z,13.70
2019-03-26T22:30:18.451Z,13.70
2019-03-26T22:32:47.218Z,13.80
2019-03-26T22:35:15.967Z,13.80
2019-03-26T22:37:44.693Z,13.50
2019-03-26T22:40:13.602Z,13.60
2019-03-26T22:42:42.351Z,13.50
2019-03-26T22:45:11.459Z,13.60
2019-03-26T22:47:40.246Z,13.50
2019-03-26T22:50:11.480Z,13.40
2019-03-26T22:52:39.975Z,13.50
2019-03-26T22:55:09.722Z,13.60
2019-03-26T22:57:38.903Z,13.60
2019-03-26T23:00:10.454Z,13.60
2019-03-26T23:02:39.398Z,13.60
2019-03-26T23:05:09.136Z,13.60
2019-03-26T23:07:37.844Z,13.60
2019-03-26T23:10:07.935Z,13.50
2019-03-26T23:12:36.591Z,13.50
2019-03-26T23:15:14.739Z,13.50
2019-03-26T23:17:43.588Z,13.40
2019-03-26T23:20:12.213Z,13.50
2019-03-26T23:22:41.011Z,13.50
2019-03-26T23:25:10.275Z,13.60
2019-03-26T23:27:38.967Z,13.60
2019-03-26T23:30:09.204Z,13.60
2019-03-26T23:32:38.075Z,13.60
2019-03-26T23:35:07.629Z,13.50
2019-03-26T23:37:36.415Z,13.10
2019-03-26T23:40:05.420Z,13.30
2019-03-26T23:42:33.876Z,13.20
2019-03-26T23:45:02.655Z,13.30
2019-03-26T23:47:31.519Z,13.20
2019-03-26T23:50:00.388Z,13.30
2019-03-26T23:52:28.820Z,13.30
2019-03-26T23:54:59.944Z,13.40
2019-03-26T23:57:28.750Z,13.50
2019-03-26T23:59:57.538Z,13.50
